Time;durP1;ratioP1;P1;durP2;ratioP2;P2;SDS_P1;SDS_P2;PMS_P1;PMS_P2;Temp;Humidity;BMP_temperature;BMP_pressure;BME280_temperature;BME280_humidity;BME280_pressure;Samples;Min_cycle;Max_cycle;Signal;HPM_P1;HPM_P2
2021/12/17 00:05:07;;;;;;;48.55;31.23;;;;;;;8.88;100.00;103910.72;4806092;29;20058;-43
2021/12/17 00:07:55;;;;;;;52.63;32.10;;;;;;;8.85;100.00;103908.34;4802241;29;20054;-48
2021/12/17 00:10:45;;;;;;;53.05;34.38;;;;;;;8.85;100.00;103914.66;4802252;29;20055;-46
2021/12/17 00:13:33;;;;;;;53.33;34.50;;;;;;;8.86;100.00;103915.50;4802417;29;20051;-52
2021/12/17 00:16:24;;;;;;;54.63;35.30;;;;;;;8.86;100.00;103913.63;4804218;29;20054;-48
2021/12/17 00:44:08;;;;;;;50.50;34.65;;;;;;;8.93;100.00;103901.00;4813779;29;20060;-49
2021/12/17 00:50:33;;;;;;;55.70;35.03;;;;;;;8.93;100.00;103906.44;4803655;29;20524;-49
2021/12/17 00:53:25;;;;;;;54.83;38.28;;;;;;;8.93;100.00;103911.03;4817422;29;20061;-50
2021/12/17 00:56:12;;;;;;;57.10;36.60;;;;;;;8.87;100.00;103907.13;4809215;29;20051;-49
2021/12/17 00:59:00;;;;;;;55.30;37.15;;;;;;;8.84;100.00;103912.09;4821803;29;20137;-49
2021/12/17 01:01:50;;;;;;;57.50;37.38;;;;;;;8.81;100.00;103902.44;4821947;29;20099;-49
2021/12/17 01:04:43;;;;;;;54.85;37.80;;;;;;;8.81;100.00;103902.44;4838123;29;20053;-50
2021/12/17 01:07:34;;;;;;;55.03;36.58;;;;;;;8.79;100.00;103906.38;4837712;29;20057;-46
2021/12/17 01:10:34;;;;;;;56.28;37.28;;;;;;;8.76;100.00;103904.84;4837744;29;20140;-46
2021/12/17 01:13:45;;;;;;;53.95;34.75;;;;;;;8.71;100.00;103901.81;4875707;29;20504;-50
2021/12/17 01:17:01;;;;;;;53.35;37.22;;;;;;;8.77;100.00;103898.38;4877837;29;20057;-50
2021/12/17 01:37:30;;;;;;;49.42;33.92;;;;;;;8.84;100.00;103869.44;4855645;29;20050;-50
2021/12/17 01:43:13;;;;;;;52.03;34.80;;;;;;;8.90;100.00;103874.16;4855828;29;20053;-50
2021/12/17 01:46:02;;;;;;;54.90;34.55;;;;;;;8.89;100.00;103872.47;4874180;29;20060;-49
2021/12/17 01:49:05;;;;;;;54.22;35.65;;;;;;;8.86;100.00;103883.69;4863295;29;20061;-45
2021/12/17 02:01:14;;;;;;;52.38;34.17;;;;;;;8.77;100.00;103890.22;4860565;29;20110;-52
2021/12/17 02:04:06;;;;;;;52.85;32.95;;;;;;;8.79;100.00;103882.72;4849651;29;20069;-48
2021/12/17 02:06:53;;;;;;;56.83;34.00;;;;;;;8.77;100.00;103890.22;4848376;29;20057;-50
2021/12/17 02:22:11;;;;;;;57.15;37.22;;;;;;;8.76;100.00;103896.69;4880605;29;20049;-49
2021/12/17 02:28:45;;;;;;;50.15;33.45;;;;;;;8.76;100.00;103891.25;4848615;29;20045;-49
2021/12/17 02:31:32;;;;;;;55.08;36.80;;;;;;;8.79;100.00;103899.03;4869375;29;20056;-45
2021/12/17 02:34:45;;;;;;;54.88;35.92;;;;;;;8.80;100.00;103899.88;4881143;29;20053;-43
2021/12/17 02:37:34;;;;;;;58.13;37.30;;;;;;;8.73;100.00;103897.03;4865395;29;20053;-50
2021/12/17 02:47:25;;;;;;;53.90;35.17;;;;;;;8.61;100.00;103906.63;4880367;29;20060;-48
2021/12/17 02:50:12;;;;;;;52.25;35.58;;;;;;;8.55;100.00;103907.34;4864999;29;20060;-47
2021/12/17 02:53:02;;;;;;;50.13;34.03;;;;;;;8.53;100.00;103897.50;4864653;29;20045;-47
2021/12/17 02:55:55;;;;;;;50.53;35.08;;;;;;;8.57;100.00;103892.56;4879784;29;20137;-47
2021/12/17 02:58:43;;;;;;;53.58;34.25;;;;;;;8.61;100.00;103884.88;4866929;29;20049;-45
2021/12/17 03:01:31;;;;;;;52.20;33.80;;;;;;;8.61;100.00;103895.75;4881102;29;20217;-44
2021/12/17 03:04:20;;;;;;;53.40;35.55;;;;;;;8.65;100.00;103903.38;4880983;29;20053;-46
2021/12/17 03:07:12;;;;;;;51.85;33.75;;;;;;;8.65;100.00;103907.97;4879947;29;20117;-46
2021/12/17 03:10:04;;;;;;;53.28;34.88;;;;;;;8.67;100.00;103897.78;4880786;29;20053;-45
2021/12/17 03:12:57;;;;;;;54.92;35.67;;;;;;;8.69;100.00;103902.00;4866779;29;20101;-47
2021/12/17 03:15:53;;;;;;;55.97;35.65;;;;;;;8.72;100.00;103898.06;4880281;29;20056;-48
2021/12/17 03:18:58;;;;;;;58.22;35.42;;;;;;;8.69;100.00;103903.88;4867165;29;20053;-45
2021/12/17 03:24:52;;;;;;;56.95;34.38;;;;;;;8.62;100.00;103897.47;4861843;29;20096;-45
2021/12/17 03:27:20;;;;;;;58.33;35.45;;;;;;;8.56;100.00;103888.13;4862267;29;20449;-47
2021/12/17 03:30:08;;;;;;;56.85;35.15;;;;;;;8.53;100.00;103889.34;4861099;29;20542;-45
2021/12/17 03:32:56;;;;;;;47.85;29.65;;;;;;;8.46;100.00;103891.06;4866503;29;20045;-50
2021/12/17 03:35:43;;;;;;;58.08;34.65;;;;;;;8.48;100.00;103890.91;4851225;29;20057;-47
2021/12/17 03:38:31;;;;;;;48.63;31.48;;;;;;;8.42;100.00;103895.19;4866640;29;20053;-47
2021/12/17 03:41:27;;;;;;;46.47;30.90;;;;;;;8.38;100.00;103896.53;4880381;29;20516;-47
2021/12/17 03:44:21;;;;;;;48.42;30.27;;;;;;;8.47;100.00;103895.50;4865829;29;20056;-45
2021/12/17 03:47:20;;;;;;;53.03;34.25;;;;;;;8.52;100.00;103897.69;4880259;29;20081;-48
2021/12/17 03:50:20;;;;;;;53.95;33.65;;;;;;;8.51;100.00;103895.97;4877473;29;20140;-47
2021/12/17 03:53:09;;;;;;;51.17;32.75;;;;;;;8.54;100.00;103895.66;4879522;29;20049;-45
2021/12/17 03:55:58;;;;;;;53.80;33.50;;;;;;;8.56;100.00;103892.72;4879713;29;20100;-46
2021/12/17 03:58:49;;;;;;;52.53;33.03;;;;;;;8.55;100.00;103891.06;4866141;29;20060;-47
2021/12/17 04:01:39;;;;;;;47.67;30.27;;;;;;;8.59;100.00;103889.69;4866215;29;20045;-44
2021/12/17 04:04:27;;;;;;;48.92;31.88;;;;;;;8.63;100.00;103896.44;4865832;29;20044;-46
2021/12/17 04:07:35;;;;;;;56.47;33.60;;;;;;;8.66;100.00;103893.34;4879681;29;20441;-48
2021/12/17 04:10:45;;;;;;;52.55;32.22;;;;;;;8.67;100.00;103895.06;4879798;29;20053;-44
2021/12/17 04:13:37;;;;;;;45.20;29.50;;;;;;;8.59;100.00;103895.94;4865701;29;20045;-44
2021/12/17 04:16:30;;;;;;;49.50;31.75;;;;;;;8.53;100.00;103894.78;4878436;29;20132;-47
2021/12/17 04:19:16;;;;;;;44.42;30.40;;;;;;;8.49;100.00;103898.91;4876470;29;20059;-47
2021/12/17 04:22:06;;;;;;;48.70;31.30;;;;;;;8.53;100.00;103894.78;4879539;29;20045;-47
2021/12/17 04:24:54;;;;;;;52.90;32.38;;;;;;;8.57;100.00;103894.44;4847123;29;20069;-47
2021/12/17 04:27:42;;;;;;;48.83;30.00;;;;;;;8.58;100.00;103891.53;4879016;29;20061;-43
2021/12/17 04:30:30;;;;;;;53.78;32.65;;;;;;;8.59;100.00;103895.94;4879558;29;20460;-42
2021/12/17 04:33:19;;;;;;;47.80;31.48;;;;;;;8.61;100.00;103890.31;4863116;29;20492;-42
2021/12/17 04:36:09;;;;;;;46.38;29.05;;;;;;;8.62;100.00;103887.44;4878412;29;20079;-43
2021/12/17 04:38:58;;;;;;;46.38;28.45;;;;;;;8.63;100.00;103891.81;4878298;29;20530;-43
2021/12/17 04:41:59;;;;;;;47.10;29.40;;;;;;;8.65;100.00;103894.38;4879324;29;20049;-48
2021/12/17 04:44:53;;;;;;;42.03;27.45;;;;;;;8.65;100.00;103892.50;4859704;29;20053;-43
2021/12/17 04:57:30;;;;;;;45.08;25.85;;;;;;;8.69;100.00;103893.00;4877668;29;20059;-48
2021/12/17 05:00:24;;;;;;;45.78;26.63;;;;;;;8.70;100.00;103881.94;4877939;29;20049;-48
2021/12/17 05:03:25;;;;;;;45.75;26.65;;;;;;;8.70;100.00;103886.53;4876007;29;20060;-48
2021/12/17 05:06:14;;;;;;;40.38;24.73;;;;;;;8.67;100.00;103890.44;4864352;29;20059;-46
2021/12/17 05:09:24;;;;;;;43.47;25.65;;;;;;;8.64;100.00;103900.84;4878048;29;20049;-45
2021/12/17 05:18:28;;;;;;;39.67;24.33;;;;;;;8.46;100.00;103893.78;4864958;29;20067;-46
2021/12/17 05:21:22;;;;;;;41.40;23.90;;;;;;;8.43;100.00;103899.59;4864791;29;20103;-43
2021/12/17 05:24:10;;;;;;;37.85;22.48;;;;;;;8.45;100.00;103903.00;4865378;29;20489;-43
2021/12/17 05:26:58;;;;;;;39.08;23.23;;;;;;;8.46;100.00;103896.50;4863459;29;20109;-45
2021/12/17 05:29:48;;;;;;;37.65;22.15;;;;;;;8.49;100.00;103898.91;4876739;29;20088;-49
2021/12/17 05:32:35;;;;;;;39.30;23.20;;;;;;;8.46;100.00;103896.50;4859028;29;20080;-47
2021/12/17 05:35:24;;;;;;;36.90;22.70;;;;;;;8.46;100.00;103904.66;4848064;29;20492;-42
2021/12/17 05:38:12;;;;;;;35.70;21.98;;;;;;;8.47;100.00;103906.38;4877440;29;20524;-42
2021/12/17 05:41:00;;;;;;;36.47;21.98;;;;;;;8.48;100.00;103896.34;4864619;29;20052;-43
2021/12/17 05:43:57;;;;;;;33.75;21.33;;;;;;;8.55;100.00;103902.75;4864407;29;20060;-48
2021/12/17 05:46:51;;;;;;;36.53;22.08;;;;;;;8.54;100.00;103901.09;4869470;29;20081;-43
2021/12/17 05:49:42;;;;;;;36.05;21.35;;;;;;;8.52;100.00;103895.81;4844557;29;20424;-43
2021/12/17 05:52:29;;;;;;;34.45;21.20;;;;;;;8.51;100.00;103913.16;4864936;29;20053;-43
2021/12/17 05:55:17;;;;;;;35.40;21.35;;;;;;;8.49;100.00;103920.63;4864143;29;20109;-45
2021/12/17 05:58:07;;;;;;;33.97;21.90;;;;;;;8.47;100.00;103910.97;4864575;29;20048;-45
2021/12/17 06:00:54;;;;;;;33.70;19.67;;;;;;;8.45;100.00;103919.28;4877280;29;20516;-49
2021/12/17 06:04:05;;;;;;;32.25;19.90;;;;;;;8.36;100.00;103914.88;4862740;29;20515;-47
2021/12/17 06:07:07;;;;;;;34.25;20.08;;;;;;;8.35;100.00;103921.34;4861850;29;20117;-46
2021/12/17 06:10:01;;;;;;;29.92;18.77;;;;;;;8.36;100.00;103923.03;4862602;29;20483;-48
2021/12/17 06:12:53;;;;;;;31.73;19.10;;;;;;;8.37;100.00;103915.72;4877344;29;20088;-45
2021/12/17 06:15:42;;;;;;;29.85;18.55;;;;;;;8.40;100.00;103920.84;4877404;29;20092;-47
2021/12/17 06:18:29;;;;;;;29.88;17.25;;;;;;;8.42;100.00;103927.81;4864002;29;20078;-47
2021/12/17 06:21:19;;;;;;;28.02;17.80;;;;;;;8.45;100.00;103924.72;4876149;29;20053;-44
2021/12/17 06:24:07;;;;;;;28.02;17.08;;;;;;;8.47;100.00;103930.84;4862182;29;20059;-47
2021/12/17 06:26:55;;;;;;;28.88;17.80;;;;;;;8.45;100.00;103937.47;4861453;29;20145;-47
2021/12/17 06:29:45;;;;;;;26.35;16.52;;;;;;;8.43;100.00;103926.78;4877078;29;20162;-47
2021/12/17 06:32:36;;;;;;;31.27;17.85;;;;;;;8.42;100.00;103924.22;4864356;29;20068;-48
2021/12/17 06:35:24;;;;;;;29.08;17.50;;;;;;;8.40;100.00;103929.84;4877308;29;20079;-47
2021/12/17 06:38:12;;;;;;;29.33;17.75;;;;;;;8.34;100.00;103930.50;4863891;29;20056;-45
2021/12/17 06:41:00;;;;;;;27.88;17.33;;;;;;;8.30;100.00;103930.03;4876593;29;20061;-46
2021/12/17 06:43:49;;;;;;;27.40;17.23;;;;;;;8.29;100.00;103930.19;4868029;29;20053;-48
2021/12/17 06:46:54;;;;;;;26.75;16.77;;;;;;;8.32;100.00;103925.28;4879059;29;20049;-49
2021/12/17 06:49:53;;;;;;;24.00;15.90;;;;;;;8.27;100.00;103927.69;4867123;29;20064;-48
2021/12/17 07:10:16;;;;;;;24.35;15.50;;;;;;;8.23;100.00;103939.06;4839843;29;20070;-48
2021/12/17 07:34:30;;;;;;;25.73;15.98;;;;;;;8.45;100.00;103913.00;4792759;29;20440;-46
2021/12/17 07:40:19;;;;;;;23.63;14.80;;;;;;;8.49;100.00;103904.34;4810463;29;20046;-49
2021/12/17 07:43:13;;;;;;;24.88;15.18;;;;;;;8.52;100.00;103909.41;4807756;29;20070;-45
2021/12/17 07:46:12;;;;;;;27.02;15.05;;;;;;;8.57;100.00;103914.31;4808252;29;20054;-47
2021/12/17 07:48:59;;;;;;;23.27;14.85;;;;;;;8.58;100.00;103913.25;4820221;29;20455;-45
2021/12/17 07:51:47;;;;;;;24.35;14.55;;;;;;;8.57;100.00;103919.75;4822669;29;20502;-48
2021/12/17 07:54:39;;;;;;;22.75;14.75;;;;;;;8.56;100.00;103920.75;4822821;29;20064;-42
2021/12/17 07:57:27;;;;;;;25.55;15.05;;;;;;;8.56;100.00;103923.47;4809804;29;20506;-42
2021/12/17 08:00:15;;;;;;;24.80;15.32;;;;;;;8.51;100.00;103929.47;4808937;29;20062;-44
2021/12/17 08:03:02;;;;;;;24.80;15.65;;;;;;;8.39;100.00;103932.69;4807551;29;20058;-48
2021/12/17 08:06:09;;;;;;;22.77;14.55;;;;;;;8.32;100.00;103946.13;4804345;29;20114;-46
2021/12/17 08:09:15;;;;;;;24.02;14.65;;;;;;;8.21;100.00;103943.81;4847732;29;20054;-47
2021/12/17 08:12:10;;;;;;;25.70;14.88;;;;;;;8.25;100.00;103950.56;4876700;29;20049;-43
2021/12/17 08:15:23;;;;;;;24.13;15.23;;;;;;;8.29;100.00;103947.34;4866149;29;20397;-51
2021/12/17 08:18:27;;;;;;;25.48;14.77;;;;;;;8.33;100.00;103947.84;4866043;29;20117;-47
2021/12/17 08:33:10;;;;;;;25.40;15.93;;;;;;;8.30;100.00;103950.91;4847054;29;20102;-48
2021/12/17 08:35:59;;;;;;;22.92;14.73;;;;;;;8.27;100.00;103953.97;4860604;29;20068;-47
2021/12/17 08:38:53;;;;;;;24.00;15.13;;;;;;;8.28;100.00;103950.25;4857619;29;20072;-48
2021/12/17 08:41:53;;;;;;;26.25;16.25;;;;;;;8.26;100.00;103955.84;4864991;29;20423;-48
2021/12/17 08:44:43;;;;;;;24.67;15.63;;;;;;;8.26;100.00;103944.97;4865085;29;20064;-49
2021/12/17 08:47:57;;;;;;;24.95;15.77;;;;;;;8.29;100.00;103951.94;4865019;29;20057;-49
2021/12/17 08:50:54;;;;;;;22.60;15.25;;;;;;;8.22;100.00;103945.50;4875412;29;20060;-49
2021/12/17 08:53:32;;;;;;;25.85;15.88;;;;;;;8.23;100.00;103936.34;4862664;29;20148;-47
2021/12/17 08:56:22;;;;;;;25.10;15.50;;;;;;;8.26;100.00;103942.25;4876652;29;20104;-48
2021/12/17 08:59:00;;;;;;;24.60;15.35;;;;;;;8.31;100.00;103958.03;4848050;29;20063;-47
2021/12/17 09:01:55;;;;;;;26.27;15.90;;;;;;;8.35;100.00;103953.13;4878027;29;20109;-49
2021/12/17 09:04:43;;;;;;;24.65;14.70;;;;;;;8.37;100.00;103959.19;4863899;29;20136;-48
2021/12/17 09:07:34;;;;;;;24.30;14.57;;;;;;;8.30;100.00;103961.78;4877710;29;20144;-50
2021/12/17 09:10:44;;;;;;;24.95;14.35;;;;;;;8.25;100.00;103961.44;4878732;29;20144;-47
2021/12/17 09:13:33;;;;;;;25.90;15.90;;;;;;;8.17;100.00;103975.06;4864818;29;20056;-46
2021/12/17 09:16:06;;;;;;;25.20;15.18;;;;;;;8.16;100.00;103974.22;4846707;29;20056;-46
2021/12/17 09:18:57;;;;;;;24.13;14.98;;;;;;;8.09;100.00;103971.34;4862620;29;20060;-50
2021/12/17 09:21:52;;;;;;;27.17;16.23;;;;;;;8.08;100.00;103977.81;4877074;29;20139;-50
2021/12/17 09:24:45;;;;;;;26.48;15.40;;;;;;;8.16;100.00;103981.53;4864980;29;20105;-47
2021/12/17 09:27:39;;;;;;;26.83;15.85;;;;;;;8.22;100.00;103983.53;4878465;29;20064;-48
2021/12/17 09:30:26;;;;;;;23.27;14.63;;;;;;;8.23;100.00;103977.09;4878053;29;20049;-47
2021/12/17 09:33:14;;;;;;;22.02;13.68;;;;;;;8.22;100.00;103975.38;4876138;29;20064;-47
2021/12/17 09:36:02;;;;;;;22.60;14.68;;;;;;;8.24;100.00;103976.06;4878664;29;20055;-47
2021/12/17 09:38:52;;;;;;;23.38;14.73;;;;;;;8.24;100.00;103976.06;4878684;29;20125;-47
2021/12/17 09:41:50;;;;;;;22.90;13.75;;;;;;;8.23;100.00;103980.66;4878597;29;20091;-48
2021/12/17 09:44:38;;;;;;;22.15;14.20;;;;;;;8.19;100.00;103983.88;4878513;29;20476;-47
2021/12/17 09:47:25;;;;;;;22.08;13.80;;;;;;;8.19;100.00;103986.59;4878509;29;20049;-47
2021/12/17 09:50:17;;;;;;;22.15;13.05;;;;;;;8.17;100.00;103996.78;4875971;29;20366;-46
2021/12/17 09:53:04;;;;;;;20.75;13.25;;;;;;;8.20;100.00;104001.88;4878342;29;20049;-48
2021/12/17 09:55:52;;;;;;;21.10;14.13;;;;;;;8.16;100.00;104001.38;4878561;29;20056;-48
2021/12/17 09:58:39;;;;;;;21.58;13.00;;;;;;;8.16;100.00;104000.53;4875716;29;20420;-48
2021/12/17 10:01:27;;;;;;;19.50;12.02;;;;;;;8.22;100.00;104002.53;4857481;29;20056;-47
2021/12/17 10:04:19;;;;;;;19.83;12.43;;;;;;;8.30;100.00;104013.41;4859598;29;20057;-49
2021/12/17 10:07:21;;;;;;;19.10;11.35;;;;;;;8.35;100.00;104016.44;4856933;29;20496;-46
2021/12/17 10:10:09;;;;;;;20.75;12.30;;;;;;;8.53;100.00;104021.66;4866789;29;20041;-49
2021/12/17 10:13:07;;;;;;;23.15;12.18;;;;;;;8.52;100.00;104020.81;4876174;29;20049;-49
2021/12/17 10:15:58;;;;;;;19.80;12.07;;;;;;;8.47;100.00;104019.66;4879281;29;20076;-49
2021/12/17 10:18:48;;;;;;;19.08;11.63;;;;;;;8.41;100.00;104018.47;4879441;29;20469;-50
2021/12/17 10:21:38;;;;;;;17.92;10.80;;;;;;;8.42;100.00;104017.47;4881595;29;20057;-48
2021/12/17 10:24:24;;;;;;;14.98;8.85;;;;;;;8.40;100.00;104018.66;4852538;29;20519;-44
2021/12/17 10:27:27;;;;;;;16.33;9.93;;;;;;;8.37;100.00;104008.09;4881311;29;20140;-47
2021/12/17 10:30:16;;;;;;;17.33;9.32;;;;;;;8.34;100.00;104014.72;4881552;29;20052;-49
2021/12/17 10:33:06;;;;;;;14.50;8.95;;;;;;;8.36;100.00;104012.69;4880357;29;20492;-47
2021/12/17 10:35:56;;;;;;;13.25;7.85;;;;;;;8.38;100.00;104013.38;4865034;29;20132;-52
2021/12/17 10:38:45;;;;;;;14.95;8.43;;;;;;;8.36;100.00;104011.84;4881502;29;20049;-47
2021/12/17 10:41:34;;;;;;;12.52;7.88;;;;;;;8.36;100.00;104026.28;4880382;29;20092;-48
2021/12/17 10:44:23;;;;;;;14.15;8.07;;;;;;;8.49;100.00;104017.59;4867508;29;20105;-47
2021/12/17 10:47:30;;;;;;;12.52;8.15;;;;;;;8.48;100.00;104022.19;4881400;29;20041;-51
2021/12/17 10:50:24;;;;;;;14.30;8.07;;;;;;;8.51;100.00;104023.72;4867009;29;20057;-48
2021/12/17 10:53:12;;;;;;;12.82;8.02;;;;;;;8.49;100.00;104021.19;4878362;29;20061;-49
2021/12/17 10:56:00;;;;;;;14.40;8.73;;;;;;;8.40;100.00;104019.50;4836280;29;20120;-47
2021/12/17 10:58:58;;;;;;;13.30;8.18;;;;;;;8.38;100.00;104029.66;4862399;29;20053;-48
2021/12/17 11:01:48;;;;;;;12.40;7.32;;;;;;;8.27;100.00;104022.75;4836140;29;20049;-46
2021/12/17 11:04:43;;;;;;;13.77;8.05;;;;;;;8.33;100.00;104023.91;4875756;29;20097;-48
2021/12/17 11:07:38;;;;;;;12.82;7.05;;;;;;;8.30;100.00;104021.56;4867134;29;20113;-45
2021/12/17 11:10:33;;;;;;;12.63;6.70;;;;;;;8.26;100.00;104028.34;4880034;29;20543;-48
2021/12/17 11:13:20;;;;;;;11.88;7.30;;;;;;;8.24;100.00;104019.53;4880863;29;20092;-47
2021/12/17 11:16:08;;;;;;;13.25;8.10;;;;;;;8.21;100.00;104022.59;4864464;29;20060;-49
2021/12/17 11:18:56;;;;;;;11.20;6.68;;;;;;;8.21;100.00;104014.44;4866028;29;20117;-44
2021/12/17 11:21:45;;;;;;;13.60;8.13;;;;;;;8.22;100.00;104016.13;4866814;29;20088;-44
2021/12/17 11:24:35;;;;;;;10.52;6.45;;;;;;;8.15;100.00;104002.38;4877513;29;20053;-49
2021/12/17 11:27:22;;;;;;;10.90;6.15;;;;;;;8.15;100.00;104005.09;4877238;29;20053;-45
2021/12/17 11:30:13;;;;;;;10.18;6.13;;;;;;;8.18;100.00;103998.47;4878394;29;20441;-46
2021/12/17 11:33:04;;;;;;;11.27;6.15;;;;;;;8.14;100.00;104002.56;4877500;29;20085;-45
2021/12/17 11:35:52;;;;;;;9.15;5.82;;;;;;;8.16;100.00;103989.69;4877292;29;20064;-46
2021/12/17 11:38:48;;;;;;;9.88;6.00;;;;;;;8.22;100.00;103995.22;4877686;29;20052;-46
2021/12/17 11:42:18;;;;;;;11.40;6.05;;;;;;;8.23;100.00;103996.94;4879787;29;20053;-46
2021/12/17 11:45:28;;;;;;;10.07;5.70;;;;;;;8.25;100.00;103999.47;4866147;29;20053;-48
2021/12/17 11:48:18;;;;;;;10.25;5.47;;;;;;;8.29;100.00;103992.66;4869282;29;20059;-46
2021/12/17 11:51:15;;;;;;;8.77;5.10;;;;;;;8.26;100.00;103985.72;4858682;29;20101;-46
2021/12/17 11:54:16;;;;;;;8.85;5.32;;;;;;;8.28;100.00;103988.28;4880109;29;20041;-48
2021/12/17 11:57:05;;;;;;;8.75;4.60;;;;;;;8.28;100.00;103999.16;4872051;29;20113;-46
2021/12/17 11:59:52;;;;;;;7.28;4.32;;;;;;;8.20;100.00;103991.88;4862462;29;20219;-46
2021/12/17 12:02:48;;;;;;;7.25;4.28;;;;;;;8.16;100.00;103989.69;4861238;29;20501;-46
2021/12/17 12:05:38;;;;;;;7.68;4.63;;;;;;;8.17;100.00;103996.78;4869075;29;20093;-47
2021/12/17 12:08:28;;;;;;;6.88;4.05;;;;;;;8.19;100.00;103997.47;4879098;29;20049;-46
2021/12/17 12:11:07;;;;;;;7.82;4.18;;;;;;;8.24;100.00;103995.06;4863102;29;20095;-47
2021/12/17 12:13:55;;;;;;;8.25;4.63;;;;;;;8.27;100.00;103989.28;4199210;29;10000701;-47
2021/12/17 12:16:43;;;;;;;7.38;4.10;;;;;;;8.27;100.00;103986.56;4876854;29;20053;-47
2021/12/17 12:19:50;;;;;;;6.30;3.97;;;;;;;8.28;100.00;103994.56;4877680;29;20057;-49
2021/12/17 12:22:43;;;;;;;7.13;3.72;;;;;;;8.25;100.00;103989.47;4875037;29;20500;-51
2021/12/17 12:25:31;;;;;;;6.13;3.35;;;;;;;8.23;100.00;103990.69;4870820;29;20056;-45
2021/12/17 12:28:44;;;;;;;16.48;8.57;;;;;;;8.23;100.00;103990.69;4848521;29;20109;-45
2021/12/17 12:31:42;;;;;;;6.13;3.90;;;;;;;8.17;100.00;103984.03;4876012;29;20421;-46
2021/12/17 12:34:36;;;;;;;6.13;3.40;;;;;;;8.17;100.00;103986.75;4878208;29;20053;-47
2021/12/17 12:37:26;;;;;;;5.20;3.03;;;;;;;8.13;100.00;103985.44;4877514;29;20117;-44
2021/12/17 12:40:16;;;;;;;6.05;3.72;;;;;;;8.16;100.00;103984.25;4861211;29;20104;-46
2021/12/17 12:43:04;;;;;;;5.13;3.08;;;;;;;8.18;100.00;103984.88;4862253;29;20461;-42
2021/12/17 12:45:51;;;;;;;9.77;4.60;;;;;;;8.15;100.00;103977.09;4872023;29;21001;-46
2021/12/17 12:48:40;;;;;;;4.53;3.05;;;;;;;8.17;100.00;103983.22;4845059;29;20084;-46
2021/12/17 12:51:34;;;;;;;3.60;2.63;;;;;;;8.16;100.00;103986.97;4860787;29;20519;-45
2021/12/17 12:54:23;;;;;;;5.10;2.88;;;;;;;8.07;100.00;103981.53;4877398;29;20049;-47
2021/12/17 12:57:11;;;;;;;4.13;2.60;;;;;;;8.07;100.00;103980.69;4877160;29;20052;-46
2021/12/17 13:00:12;;;;;;;3.88;2.50;;;;;;;8.07;100.00;103978.81;4874905;29;20053;-47
2021/12/17 13:03:03;;;;;;;3.35;2.33;;;;;;;8.10;100.00;103980.31;4876763;29;20045;-48
2021/12/17 13:05:51;;;;;;;2.83;2.42;;;;;;;8.11;100.00;103987.47;4863341;29;20084;-46
2021/12/17 13:08:40;;;;;;;2.97;2.38;;;;;;;8.05;100.00;103983.56;4874612;29;20480;-47
2021/12/17 13:11:27;;;;;;;4.15;2.72;;;;;;;8.04;100.00;103981.03;4874895;29;20085;-48
2021/12/17 13:14:18;;;;;;;7.53;3.25;;;;;;;8.13;100.00;103977.28;4874501;29;20562;-45
2021/12/17 13:17:19;;;;;;;24.77;8.15;;;;;;;8.14;100.00;103981.69;4863327;29;20412;-48
2021/12/17 13:20:41;;;;;;;4.95;2.72;;;;;;;8.17;100.00;103975.06;4876942;29;20483;-47
2021/12/17 13:23:25;;;;;;;9.05;3.58;;;;;;;8.17;100.00;103969.63;4861064;29;20125;-48
2021/12/17 13:26:12;;;;;;;4.43;2.83;;;;;;;8.27;100.00;103962.13;4861377;29;20053;-47
2021/12/17 13:29:14;;;;;;;3.78;2.55;;;;;;;8.32;100.00;103970.59;4876785;29;20060;-48
2021/12/17 13:32:11;;;;;;;4.40;2.72;;;;;;;8.32;100.00;103965.16;4876219;29;20060;-45
2021/12/17 13:34:59;;;;;;;3.97;2.80;;;;;;;8.24;100.00;103976.06;4871950;29;20101;-49
2021/12/17 13:37:52;;;;;;;12.68;4.95;;;;;;;8.16;100.00;103967.94;4874413;29;20525;-46
2021/12/17 13:40:40;;;;;;;6.35;3.38;;;;;;;8.18;100.00;103974.03;4874229;29;20485;-49
2021/12/17 13:43:29;;;;;;;5.22;3.13;;;;;;;8.17;100.00;103981.34;4860344;29;20065;-47
2021/12/17 13:46:17;;;;;;;6.20;3.38;;;;;;;8.16;100.00;103962.50;4876383;29;20049;-46
2021/12/17 13:49:04;;;;;;;6.70;2.97;;;;;;;8.07;100.00;103969.81;4876656;29;20121;-45
2021/12/17 13:51:52;;;;;;;5.60;2.63;;;;;;;8.03;100.00;103960.31;4878897;29;20061;-48
2021/12/17 13:54:40;;;;;;;7.13;3.50;;;;;;;8.12;100.00;103967.44;4866644;29;20138;-47
2021/12/17 13:57:30;;;;;;;5.47;3.10;;;;;;;8.08;100.00;103960.66;4866924;29;20064;-43
2021/12/17 14:00:13;;;;;;;5.20;2.95;;;;;;;8.00;100.00;103964.22;4863939;29;20079;-48
2021/12/17 14:03:01;;;;;;;5.35;3.28;;;;;;;7.91;100.00;103962.56;4880271;29;20060;-48
2021/12/17 14:05:55;;;;;;;13.00;4.05;;;;;;;8.00;100.00;103975.09;4879001;29;20393;-47
2021/12/17 14:08:43;;;;;;;6.72;2.92;;;;;;;8.10;100.00;103973.06;4879812;29;20060;-47
2021/12/17 14:11:34;;;;;;;4.57;3.00;;;;;;;8.17;100.00;103972.34;4853823;29;20414;-47
2021/12/17 14:14:41;;;;;;;3.30;2.40;;;;;;;8.20;100.00;103969.28;4879921;29;20056;-47
2021/12/17 14:17:37;;;;;;;3.00;2.30;;;;;;;8.20;100.00;103970.13;4880371;29;20144;-49
2021/12/17 14:20:45;;;;;;;2.78;2.28;;;;;;;8.25;100.00;103956.00;4877899;29;20154;-49
2021/12/17 14:23:37;;;;;;;3.80;2.60;;;;;;;8.29;100.00;103957.34;4876334;29;20519;-48
2021/12/17 14:26:30;;;;;;;3.75;2.80;;;;;;;8.34;100.00;103965.81;4879861;29;20049;-45
2021/12/17 14:29:17;;;;;;;4.20;2.67;;;;;;;8.37;100.00;103965.50;4879979;29;20089;-52
2021/12/17 14:32:05;;;;;;;5.28;2.78;;;;;;;8.37;100.00;103965.50;4877709;29;20064;-47
2021/12/17 14:34:55;;;;;;;4.35;2.63;;;;;;;8.35;100.00;103959.38;4863795;29;20059;-48
2021/12/17 14:38:03;;;;;;;5.07;2.65;;;;;;;8.35;100.00;103961.25;4879721;29;20104;-48
2021/12/17 14:40:56;;;;;;;4.10;2.70;;;;;;;8.34;100.00;103965.81;4877376;29;20485;-48
2021/12/17 14:44:09;;;;;;;4.18;2.70;;;;;;;8.29;100.00;103970.94;4865327;29;20061;-48
2021/12/17 14:47:05;;;;;;;3.10;2.42;;;;;;;8.24;100.00;103959.75;4868111;29;20057;-47
2021/12/17 15:00:15;;;;;;;4.97;2.70;;;;;;;8.17;100.00;103969.63;4879571;29;20089;-44
2021/12/17 15:05:07;;;;;;;3.85;2.70;;;;;;;8.31;100.00;103977.06;4879236;29;20064;-43
2021/12/17 15:07:56;;;;;;;3.65;2.60;;;;;;;8.35;100.00;103970.25;4859359;29;20106;-48
2021/12/17 15:10:47;;;;;;;3.53;2.70;;;;;;;8.41;100.00;103972.28;4856342;29;20056;-48
2021/12/17 15:13:35;;;;;;;4.10;3.10;;;;;;;8.43;99.55;103970.25;4874586;29;20119;-45
2021/12/17 15:16:23;;;;;;;5.43;3.30;;;;;;;8.41;99.52;103972.28;4876852;29;20060;-48
2021/12/17 15:19:10;;;;;;;4.15;2.90;;;;;;;8.38;99.76;103974.50;4878926;29;20068;-46
2021/12/17 15:21:58;;;;;;;8.20;4.10;;;;;;;8.39;99.74;103974.28;4878975;29;20060;-49
2021/12/17 15:24:57;;;;;;;4.97;3.28;;;;;;;8.38;99.32;103960.91;4878631;29;20049;-49
2021/12/17 15:27:46;;;;;;;5.78;3.00;;;;;;;8.36;98.93;103957.50;4875774;29;20060;-49
2021/12/17 15:30:37;;;;;;;6.75;3.60;;;;;;;8.32;99.07;103957.00;4876584;29;20079;-52
2021/12/17 15:33:24;;;;;;;6.68;3.63;;;;;;;8.30;99.60;103961.78;4878292;29;20108;-43
2021/12/17 15:36:12;;;;;;;4.78;3.20;;;;;;;8.32;98.98;103957.00;4878269;29;20687;-48
2021/12/17 15:39:00;;;;;;;5.43;3.47;;;;;;;8.32;99.10;103952.44;4865269;29;20061;-46
2021/12/17 15:41:47;;;;;;;7.00;4.30;;;;;;;8.33;99.30;103953.28;4878286;29;20065;-48
2021/12/17 15:44:35;;;;;;;6.38;3.83;;;;;;;8.31;99.54;103950.72;4878065;29;20136;-44
2021/12/17 15:47:23;;;;;;;8.75;3.83;;;;;;;8.33;99.26;103962.28;4856708;29;20495;-48
2021/12/17 15:50:12;;;;;;;7.07;3.95;;;;;;;8.39;98.82;103965.31;4859739;29;20505;-48
2021/12/17 15:52:59;;;;;;;8.65;5.13;;;;;;;8.35;99.26;103961.25;4872909;29;20061;-47
2021/12/17 15:55:47;;;;;;;9.27;4.72;;;;;;;8.34;99.79;103965.81;4875832;29;20057;-45
2021/12/17 15:58:35;;;;;;;6.60;4.18;;;;;;;8.35;98.89;103962.09;4878234;29;20129;-44